createdAt,value
2018-05-29T00:02:16.356Z,1.00
2018-05-29T00:04:43.770Z,1.00
2018-05-29T00:07:11.191Z,1.00
2018-05-29T00:09:38.600Z,1.00
2018-05-29T00:12:06.784Z,1.00
2018-05-29T00:14:34.221Z,1.00
2018-05-29T00:17:02.754Z,1.00
2018-05-29T00:19:30.176Z,1.00
2018-05-29T00:21:57.595Z,1.00
2018-05-29T00:24:25.008Z,1.00
2018-05-29T00:26:52.413Z,1.00
2018-05-29T00:29:19.842Z,1.00
2018-05-29T00:31:47.257Z,1.00
2018-05-29T00:34:16.191Z,1.00
2018-05-29T00:36:44.375Z,1.00
2018-05-29T00:39:11.794Z,1.00
2018-05-29T00:41:39.204Z,1.00
2018-05-29T00:44:07.422Z,1.00
2018-05-29T00:46:34.936Z,1.00
2018-05-29T00:49:02.348Z,1.00
2018-05-29T00:51:29.776Z,1.00
2018-05-29T00:53:57.198Z,1.00
2018-05-29T00:56:24.605Z,1.00
2018-05-29T00:58:52.023Z,1.10
2018-05-29T01:01:19.434Z,1.20
2018-05-29T01:03:46.846Z,1.10
2018-05-29T01:06:15.029Z,1.30
2018-05-29T01:08:43.215Z,1.40
2018-05-29T01:11:11.394Z,1.40
2018-05-29T01:13:39.572Z,2.30
2018-05-29T01:16:06.998Z,2.20
2018-05-29T01:18:34.457Z,3.00
2018-05-29T01:21:01.876Z,3.60
2018-05-29T01:23:29.297Z,4.10
2018-05-29T01:25:56.727Z,4.60
2018-05-29T01:28:24.665Z,4.30
2018-05-29T01:30:52.136Z,4.90
2018-05-29T01:33:19.553Z,5.20
2018-05-29T01:35:47.771Z,5.80
2018-05-29T01:38:15.173Z,6.10
2018-05-29T01:40:42.584Z,6.10
2018-05-29T01:43:10.770Z,6.30
2018-05-29T01:45:38.964Z,7.20
2018-05-29T01:48:06.376Z,7.10
2018-05-29T01:50:33.792Z,7.30
2018-05-29T01:53:01.973Z,8.40
2018-05-29T01:55:30.160Z,8.80
2018-05-29T01:57:58.335Z,9.30
2018-05-29T02:00:26.534Z,10.40
2018-05-29T02:02:54.713Z,10.50
2018-05-29T02:05:22.904Z,11.50
2018-05-29T02:07:51.104Z,10.50
2018-05-29T02:10:19.306Z,11.10
2018-05-29T02:12:46.723Z,11.10
2018-05-29T02:15:14.145Z,12.10
2018-05-29T02:17:41.590Z,12.10
2018-05-29T02:20:09.043Z,12.30
2018-05-29T02:22:36.471Z,11.30
2018-05-29T02:25:03.900Z,11.70
2018-05-29T02:27:32.102Z,11.90
2018-05-29T02:30:00.281Z,12.00
2018-05-29T02:32:28.473Z,12.50
2018-05-29T02:34:55.900Z,12.50
2018-05-29T02:37:23.316Z,12.70
2018-05-29T02:39:50.744Z,13.20
2018-05-29T02:42:18.157Z,12.70
2018-05-29T02:44:45.597Z,12.60
2018-05-29T02:47:13.816Z,13.40
2018-05-29T02:49:41.984Z,13.40
2018-05-29T02:52:10.183Z,13.20
2018-05-29T02:54:37.616Z,13.30
2018-05-29T02:57:05.043Z,13.30
2018-05-29T02:59:32.465Z,12.90
2018-05-29T03:02:00.668Z,13.40
2018-05-29T03:04:28.852Z,13.40
2018-05-29T03:06:57.045Z,13.60
2018-05-29T03:09:24.481Z,13.60
2018-05-29T03:11:51.898Z,13.90
2018-05-29T03:14:19.317Z,14.00
2018-05-29T03:16:47.521Z,14.00
2018-05-29T03:19:15.718Z,14.60
2018-05-29T03:21:43.913Z,14.70
2018-05-29T03:24:12.128Z,14.80
2018-05-29T03:26:39.561Z,14.80
2018-05-29T03:29:07.741Z,15.20
2018-05-29T03:31:35.938Z,15.10
2018-05-29T03:34:04.126Z,15.90
2018-05-29T03:36:32.340Z,15.30
2018-05-29T03:38:59.769Z,15.30
2018-05-29T03:41:27.970Z,15.80
2018-05-29T03:43:56.159Z,15.70
2018-05-29T03:46:24.340Z,15.80
2018-05-29T03:48:52.529Z,15.70
2018-05-29T03:51:20.739Z,15.90
2018-05-29T03:53:48.909Z,16.90
2018-05-29T03:56:17.088Z,18.00
2018-05-29T03:58:45.286Z,17.10
2018-05-29T04:01:12.748Z,17.00
2018-05-29T04:03:40.951Z,17.50
2018-05-29T04:06:08.372Z,17.40
2018-05-29T04:08:35.806Z,17.50
2018-05-29T04:11:03.233Z,17.50
2018-05-29T04:13:31.439Z,17.90
2018-05-29T04:15:59.629Z,17.20
2018-05-29T04:18:27.037Z,17.10
2018-05-29T04:20:54.484Z,17.40
2018-05-29T04:23:21.928Z,17.70
2018-05-29T04:25:49.375Z,17.00
2018-05-29T04:28:17.573Z,17.20
2018-05-29T04:30:45.771Z,14.70
2018-05-29T04:33:13.953Z,15.20
2018-05-29T04:35:42.160Z,15.20
2018-05-29T04:38:09.588Z,15.20
2018-05-29T04:40:37.035Z,15.80
2018-05-29T04:43:04.429Z,15.80
2018-05-29T04:45:31.861Z,15.30
2018-05-29T04:47:59.279Z,15.60
2018-05-29T04:50:27.464Z,14.60
2018-05-29T04:52:55.692Z,14.50
2018-05-29T04:55:23.115Z,14.40
2018-05-29T04:57:50.528Z,13.70
2018-05-29T05:00:17.950Z,14.50
2018-05-29T05:02:45.366Z,13.50
2018-05-29T05:05:12.793Z,14.30
2018-05-29T05:07:40.986Z,13.60
2018-05-29T05:10:09.177Z,13.60
2018-05-29T05:12:36.595Z,13.60
2018-05-29T05:15:04.010Z,13.60
2018-05-29T05:17:31.437Z,12.50
2018-05-29T05:20:00.372Z,12.30
2018-05-29T05:22:27.788Z,12.30
2018-05-29T05:24:55.239Z,12.40
2018-05-29T05:27:22.653Z,12.00
2018-05-29T05:29:50.073Z,12.60
2018-05-29T05:32:17.500Z,13.10
2018-05-29T05:34:44.931Z,12.40
2018-05-29T05:37:12.377Z,13.20
2018-05-29T05:39:39.795Z,13.30
2018-05-29T05:42:07.228Z,12.60
2018-05-29T05:44:34.662Z,12.90
2018-05-29T05:47:02.837Z,12.60
2018-05-29T05:49:30.284Z,12.60
2018-05-29T05:51:57.726Z,13.50
2018-05-29T05:54:25.180Z,13.20
2018-05-29T05:56:52.621Z,12.80
2018-05-29T05:59:20.828Z,12.10
2018-05-29T06:01:48.271Z,12.00
2018-05-29T06:04:16.460Z,11.60
2018-05-29T06:06:44.663Z,12.00
2018-05-29T06:09:12.078Z,12.00
2018-05-29T06:11:39.505Z,12.40
2018-05-29T06:14:06.930Z,12.10
2018-05-29T06:16:34.372Z,11.20
2018-05-29T06:19:01.845Z,11.50
2018-05-29T06:21:29.244Z,10.50
2018-05-29T06:23:57.453Z,9.90
2018-05-29T06:26:24.888Z,9.80
2018-05-29T06:28:52.304Z,9.00
2018-05-29T06:31:19.727Z,8.90
2018-05-29T06:33:47.167Z,9.00
2018-05-29T06:36:14.599Z,7.70
2018-05-29T06:38:42.817Z,8.30
2018-05-29T06:41:10.981Z,8.20
2018-05-29T06:43:38.425Z,8.20
2018-05-29T06:46:06.604Z,9.00
2018-05-29T06:48:34.798Z,8.70
2018-05-29T06:51:02.211Z,8.60
2018-05-29T06:53:29.665Z,7.40
2018-05-29T06:55:57.176Z,7.20
2018-05-29T06:58:24.591Z,7.10
2018-05-29T07:00:52.000Z,6.10
2018-05-29T07:03:20.193Z,5.80
2018-05-29T07:05:47.621Z,5.80
2018-05-29T07:08:15.040Z,5.30
2018-05-29T07:10:42.474Z,5.00
2018-05-29T07:13:09.896Z,5.40
2018-05-29T07:15:38.092Z,4.70
2018-05-29T07:18:05.531Z,4.70
2018-05-29T07:20:32.944Z,3.50
2018-05-29T07:23:00.365Z,3.00
2018-05-29T07:25:27.787Z,3.00
2018-05-29T07:27:55.231Z,2.30
2018-05-29T07:30:23.414Z,1.00
2018-05-29T07:32:51.596Z,1.40
2018-05-29T07:35:19.782Z,1.00
2018-05-29T07:37:47.960Z,1.00
2018-05-29T07:40:15.382Z,1.00
2018-05-29T07:42:42.810Z,1.00
2018-05-29T07:45:11.037Z,1.00
2018-05-29T07:47:38.431Z,1.00
2018-05-29T07:50:05.856Z,1.00
2018-05-29T07:52:33.274Z,1.00
2018-05-29T07:55:00.707Z,1.00
2018-05-29T07:57:28.116Z,1.00
2018-05-29T07:59:56.312Z,1.00
2018-05-29T08:02:23.740Z,1.00
2018-05-29T08:04:51.246Z,1.00
2018-05-29T08:07:18.657Z,1.00
2018-05-29T08:09:46.092Z,1.00
2018-05-29T08:12:14.305Z,1.00
2018-05-29T08:14:41.728Z,1.00
2018-05-29T08:17:09.916Z,1.00
2018-05-29T08:19:37.342Z,1.00
2018-05-29T08:22:04.790Z,1.00
2018-05-29T08:24:32.967Z,1.00
2018-05-29T08:27:00.380Z,1.00
2018-05-29T08:29:27.800Z,1.00
2018-05-29T08:31:55.987Z,1.00
2018-05-29T08:34:23.411Z,1.00
2018-05-29T08:36:50.832Z,1.00
2018-05-29T08:39:19.068Z,1.00
2018-05-29T08:41:46.454Z,1.00
2018-05-29T08:44:13.885Z,1.00
2018-05-29T08:46:41.348Z,1.00
2018-05-29T08:49:09.485Z,1.00
2018-05-29T08:51:37.681Z,1.00
2018-05-29T08:54:05.892Z,1.00
2018-05-29T08:56:33.312Z,1.00
2018-05-29T08:59:00.754Z,1.00
2018-05-29T09:01:28.184Z,1.00
2018-05-29T09:03:55.660Z,1.00
2018-05-29T09:06:23.042Z,1.00
2018-05-29T09:08:50.464Z,1.00
2018-05-29T09:11:19.395Z,1.00
2018-05-29T09:13:47.581Z,1.00
2018-05-29T09:16:15.788Z,1.00
2018-05-29T09:18:43.221Z,1.00
2018-05-29T09:21:11.410Z,1.00
2018-05-29T09:23:39.604Z,1.00
2018-05-29T09:26:07.827Z,1.00
2018-05-29T09:28:35.982Z,1.00
2018-05-29T09:31:04.172Z,1.00
2018-05-29T09:33:32.344Z,1.00
2018-05-29T09:36:00.537Z,1.00
2018-05-29T09:38:28.708Z,1.00
2018-05-29T09:40:56.142Z,1.00
2018-05-29T09:43:23.610Z,1.00
2018-05-29T09:45:51.112Z,1.00
2018-05-29T09:48:18.486Z,1.00
2018-05-29T09:50:45.870Z,1.00
2018-05-29T09:53:13.309Z,1.00
2018-05-29T09:55:40.714Z,1.00
2018-05-29T09:58:08.136Z,1.00
2018-05-29T10:00:40.411Z,1.00
2018-05-29T10:03:07.829Z,1.00
2018-05-29T10:05:35.249Z,1.00
2018-05-29T10:08:02.672Z,1.00
2018-05-29T10:10:30.085Z,1.00
2018-05-29T10:12:57.509Z,1.00
2018-05-29T10:15:24.935Z,1.00
2018-05-29T10:17:52.349Z,1.00
2018-05-29T10:20:19.784Z,1.00
2018-05-29T10:22:47.204Z,1.00
2018-05-29T10:25:14.625Z,1.00
2018-05-29T10:27:42.045Z,1.00
2018-05-29T10:30:09.474Z,1.00
2018-05-29T10:32:37.664Z,1.00
2018-05-29T10:35:05.857Z,1.00
2018-05-29T10:37:34.042Z,1.00
2018-05-29T10:40:02.224Z,1.00
2018-05-29T10:42:30.421Z,1.00
2018-05-29T10:44:58.615Z,1.00
2018-05-29T10:47:26.038Z,1.00
2018-05-29T10:49:53.460Z,1.00
2018-05-29T10:52:20.883Z,1.00
2018-05-29T10:54:49.078Z,1.00
2018-05-29T10:57:17.257Z,1.00
2018-05-29T10:59:45.447Z,1.00
2018-05-29T11:02:13.628Z,1.00
2018-05-29T11:04:41.812Z,1.00
2018-05-29T11:07:09.238Z,1.00
2018-05-29T11:09:36.668Z,1.00
2018-05-29T11:12:04.088Z,1.00
2018-05-29T11:14:31.529Z,1.00
2018-05-29T11:16:58.959Z,1.00
2018-05-29T11:19:27.184Z,1.00
2018-05-29T11:21:54.673Z,1.00
2018-05-29T11:24:22.112Z,1.00
2018-05-29T11:26:49.525Z,1.00
2018-05-29T11:29:16.940Z,1.00
2018-05-29T11:31:44.370Z,1.00
2018-05-29T11:34:11.780Z,1.00
2018-05-29T11:36:39.213Z,1.00
2018-05-29T11:39:06.628Z,1.00
2018-05-29T11:41:34.066Z,1.00
2018-05-29T11:44:01.481Z,1.00
2018-05-29T11:46:28.943Z,1.00
2018-05-29T11:48:56.379Z,1.00
2018-05-29T11:51:24.565Z,1.00
2018-05-29T11:53:52.772Z,1.00
2018-05-29T11:56:20.943Z,1.00
2018-05-29T11:58:49.144Z,1.00
2018-05-29T12:01:16.564Z,1.00
2018-05-29T12:03:44.014Z,1.00
2018-05-29T12:06:11.431Z,1.00
2018-05-29T12:08:39.623Z,1.00
2018-05-29T12:11:07.841Z,1.00
2018-05-29T12:13:35.291Z,1.00
2018-05-29T12:16:03.488Z,1.00
2018-05-29T12:18:30.985Z,1.00
2018-05-29T12:20:58.394Z,1.00
2018-05-29T12:23:26.584Z,1.00
2018-05-29T12:25:54.765Z,1.00
2018-05-29T12:28:22.988Z,1.00
2018-05-29T12:30:50.413Z,1.00
2018-05-29T12:33:18.598Z,1.00
2018-05-29T12:35:46.020Z,1.00
2018-05-29T12:38:13.441Z,1.00
2018-05-29T12:40:41.646Z,1.00
2018-05-29T12:43:09.867Z,1.00
2018-05-29T12:45:37.276Z,1.00
2018-05-29T12:48:05.468Z,1.00
2018-05-29T12:50:32.885Z,1.00
2018-05-29T12:53:00.304Z,1.00
2018-05-29T12:55:27.720Z,1.00
2018-05-29T12:57:55.158Z,1.00
2018-05-29T13:00:23.353Z,1.00
2018-05-29T13:02:51.544Z,1.00
2018-05-29T13:05:19.767Z,1.00
2018-05-29T13:07:47.161Z,1.00
2018-05-29T13:10:14.591Z,1.00
2018-05-29T13:12:42.005Z,1.00
2018-05-29T13:15:10.224Z,1.00
2018-05-29T13:17:37.632Z,1.00
2018-05-29T13:20:05.056Z,1.00
2018-05-29T13:22:32.533Z,1.00
2018-05-29T13:24:59.899Z,1.00
2018-05-29T13:27:27.341Z,1.00
2018-05-29T13:29:54.780Z,1.00
2018-05-29T13:32:22.168Z,1.00
2018-05-29T13:34:49.601Z,1.00
2018-05-29T13:37:17.025Z,1.00
2018-05-29T13:39:45.225Z,1.00
2018-05-29T13:42:12.663Z,1.00
2018-05-29T13:44:40.077Z,1.00
2018-05-29T13:47:07.501Z,1.00
2018-05-29T13:49:35.700Z,1.00
2018-05-29T13:52:03.143Z,1.00
2018-05-29T13:54:30.563Z,1.00
2018-05-29T13:56:57.968Z,1.00
2018-05-29T13:59:25.411Z,1.00
2018-05-29T14:01:52.823Z,1.00
2018-05-29T14:04:20.244Z,1.00
2018-05-29T14:06:47.659Z,1.00
2018-05-29T14:09:15.084Z,1.00
2018-05-29T14:11:42.507Z,1.00
2018-05-29T14:14:10.696Z,1.00
2018-05-29T14:16:38.905Z,1.00
2018-05-29T14:19:06.342Z,1.00
2018-05-29T14:21:33.770Z,1.00
2018-05-29T14:24:01.176Z,1.00
2018-05-29T14:26:28.619Z,1.00
2018-05-29T14:28:56.816Z,1.00
2018-05-29T14:31:24.236Z,1.00
2018-05-29T14:33:51.660Z,1.00
2018-05-29T14:36:19.068Z,1.00
2018-05-29T14:38:46.525Z,1.00
2018-05-29T14:41:13.944Z,1.00
2018-05-29T14:43:41.387Z,1.00
2018-05-29T14:46:09.575Z,1.00
2018-05-29T14:48:36.989Z,1.00
2018-05-29T14:51:04.425Z,1.00
2018-05-29T14:53:31.854Z,1.00
2018-05-29T14:56:00.045Z,1.00
2018-05-29T14:58:27.472Z,1.00
2018-05-29T15:00:54.888Z,1.00
2018-05-29T15:03:22.328Z,1.00
2018-05-29T15:05:49.736Z,1.00
2018-05-29T15:08:17.179Z,1.00
2018-05-29T15:10:45.456Z,1.00
2018-05-29T15:13:13.657Z,1.00
2018-05-29T15:15:41.860Z,1.00
2018-05-29T15:18:09.313Z,1.00
2018-05-29T15:20:37.500Z,1.00
2018-05-29T15:23:05.685Z,1.00
2018-05-29T15:25:33.878Z,1.00
2018-05-29T15:28:02.104Z,1.00
2018-05-29T15:30:29.532Z,1.00
2018-05-29T15:32:57.754Z,1.00
2018-05-29T15:35:25.175Z,1.00
2018-05-29T15:37:52.600Z,1.00
2018-05-29T15:40:20.020Z,1.00
2018-05-29T15:42:47.478Z,1.00
2018-05-29T15:45:14.879Z,1.00
2018-05-29T15:47:42.317Z,1.00
2018-05-29T15:50:10.506Z,1.00
2018-05-29T15:52:38.689Z,1.00
2018-05-29T15:55:06.105Z,1.00
2018-05-29T15:57:33.564Z,1.00
2018-05-29T16:00:01.100Z,1.00
2018-05-29T16:02:28.440Z,1.00
2018-05-29T16:04:55.852Z,1.00
2018-05-29T16:07:23.284Z,1.00
2018-05-29T16:09:50.712Z,1.00
2018-05-29T16:12:18.139Z,1.00
2018-05-29T16:14:46.324Z,1.00
2018-05-29T16:17:14.516Z,1.00
2018-05-29T16:19:42.701Z,1.00
2018-05-29T16:22:10.886Z,1.00
2018-05-29T16:24:39.064Z,1.00
2018-05-29T16:27:07.245Z,1.00
2018-05-29T16:29:34.681Z,1.00
2018-05-29T16:32:02.866Z,1.00
2018-05-29T16:34:30.312Z,1.00
2018-05-29T16:36:57.723Z,1.00
2018-05-29T16:39:25.157Z,1.00
2018-05-29T16:41:52.681Z,1.00
2018-05-29T16:44:20.121Z,1.00
2018-05-29T16:46:47.551Z,1.00
2018-05-29T16:49:14.964Z,1.00
2018-05-29T16:51:42.488Z,1.00
2018-05-29T16:54:09.888Z,1.00
2018-05-29T16:56:37.312Z,1.00
2018-05-29T16:59:04.725Z,1.00
2018-05-29T17:01:32.153Z,1.00
2018-05-29T17:03:59.568Z,1.00
2018-05-29T17:06:27.006Z,1.00
2018-05-29T17:08:54.521Z,1.00
2018-05-29T17:11:21.952Z,1.00
2018-05-29T17:13:49.364Z,1.00
2018-05-29T17:16:16.800Z,1.00
2018-05-29T17:18:44.228Z,1.00
2018-05-29T17:21:11.636Z,1.00
2018-05-29T17:23:39.069Z,1.00
2018-05-29T17:26:07.262Z,1.00
2018-05-29T17:28:35.459Z,1.00
2018-05-29T17:31:02.876Z,1.00
2018-05-29T17:33:30.310Z,1.00
2018-05-29T17:35:57.732Z,1.00
2018-05-29T17:38:25.160Z,1.00
2018-05-29T17:40:52.589Z,1.00
2018-05-29T17:43:20.772Z,1.00
2018-05-29T17:45:48.205Z,1.00
2018-05-29T17:48:15.617Z,1.00
2018-05-29T17:50:43.034Z,1.00
2018-05-29T17:53:10.476Z,1.00
2018-05-29T17:55:37.905Z,1.00
2018-05-29T17:58:06.093Z,1.00
2018-05-29T18:00:34.303Z,1.00
2018-05-29T18:03:01.720Z,1.00
2018-05-29T18:05:29.141Z,1.00
2018-05-29T18:07:56.576Z,1.00
2018-05-29T18:10:23.975Z,1.00
2018-05-29T18:12:52.151Z,1.00
2018-05-29T18:15:20.332Z,1.00
2018-05-29T18:17:48.509Z,1.00
2018-05-29T18:20:16.701Z,1.00
2018-05-29T18:22:44.120Z,1.00
2018-05-29T18:25:11.535Z,1.00
2018-05-29T18:27:38.967Z,1.00
2018-05-29T18:30:06.393Z,1.00
2018-05-29T18:32:34.570Z,1.00
2018-05-29T18:35:02.761Z,1.00
2018-05-29T18:37:30.945Z,1.00
2018-05-29T18:39:59.152Z,1.00
2018-05-29T18:42:26.576Z,1.00
2018-05-29T18:44:53.986Z,1.00
2018-05-29T18:47:21.421Z,1.00
2018-05-29T18:49:48.863Z,1.00
2018-05-29T18:52:16.274Z,1.00
2018-05-29T18:54:44.087Z,1.00
2018-05-29T18:57:11.534Z,1.00
2018-05-29T18:59:39.756Z,1.00
2018-05-29T19:02:07.188Z,1.00
2018-05-29T19:04:35.382Z,2.60
2018-05-29T19:07:03.584Z,2.50
2018-05-29T19:09:31.009Z,2.50
2018-05-29T19:11:58.473Z,3.10
2018-05-29T19:14:25.888Z,3.70
2018-05-29T19:16:53.327Z,4.60
2018-05-29T19:19:20.828Z,5.20
2018-05-29T19:21:49.089Z,5.30
2018-05-29T19:24:17.264Z,7.30
2018-05-29T19:26:44.707Z,6.90
2018-05-29T19:29:12.120Z,7.30
2018-05-29T19:31:40.312Z,7.80
2018-05-29T19:34:08.502Z,8.60
2018-05-29T19:36:36.701Z,9.00
2018-05-29T19:39:06.956Z,9.00
2018-05-29T19:41:34.369Z,9.50
2018-05-29T19:44:01.856Z,9.30
2018-05-29T19:46:30.057Z,11.00
2018-05-29T19:48:57.484Z,11.00
2018-05-29T19:51:24.911Z,10.70
2018-05-29T19:53:52.356Z,11.00
2018-05-29T19:56:19.801Z,11.00
2018-05-29T19:58:47.220Z,11.70
2018-05-29T20:01:14.682Z,11.90
2018-05-29T20:03:42.064Z,12.00
2018-05-29T20:06:09.495Z,12.10
2018-05-29T20:08:37.727Z,13.60
2018-05-29T20:11:05.140Z,13.00
2018-05-29T20:13:32.569Z,13.00
2018-05-29T20:16:00.016Z,12.60
2018-05-29T20:18:27.438Z,13.10
2018-05-29T20:20:54.897Z,13.00
2018-05-29T20:23:22.292Z,13.00
2018-05-29T20:25:50.483Z,13.40
2018-05-29T20:28:18.656Z,14.00
2018-05-29T20:30:46.085Z,14.00
2018-05-29T20:33:13.516Z,13.40
2018-05-29T20:35:41.700Z,13.40
2018-05-29T20:38:09.897Z,13.60
2018-05-29T20:40:38.072Z,14.20
2018-05-29T20:43:06.273Z,14.20
2018-05-29T20:45:34.455Z,14.60
2018-05-29T20:48:02.655Z,14.20
2018-05-29T20:50:30.085Z,14.20
2018-05-29T20:52:57.508Z,15.00
2018-05-29T20:55:24.996Z,14.10
2018-05-29T20:57:52.364Z,14.60
2018-05-29T21:00:19.784Z,14.60
2018-05-29T21:02:47.968Z,15.50
2018-05-29T21:05:16.172Z,15.50
2018-05-29T21:07:44.344Z,15.70
2018-05-29T21:10:12.555Z,16.90
2018-05-29T21:12:39.985Z,16.70
2018-05-29T21:15:07.425Z,16.90
2018-05-29T21:17:34.879Z,16.50
2018-05-29T21:20:03.044Z,16.50
2018-05-29T21:22:30.480Z,16.90
2018-05-29T21:24:57.896Z,16.30
2018-05-29T21:27:25.326Z,16.30
2018-05-29T21:29:53.528Z,16.90
2018-05-29T21:32:21.733Z,16.70
2018-05-29T21:34:49.151Z,16.80
2018-05-29T21:37:16.570Z,16.60
2018-05-29T21:39:43.997Z,15.90
2018-05-29T21:42:12.211Z,16.50
2018-05-29T21:44:40.444Z,16.10
2018-05-29T21:47:07.856Z,16.10
2018-05-29T21:49:36.077Z,16.20
2018-05-29T21:52:03.500Z,16.10
2018-05-29T21:54:30.923Z,16.20
2018-05-29T21:56:58.343Z,16.10
2018-05-29T21:59:25.769Z,16.70
2018-05-29T22:01:53.197Z,16.10
2018-05-29T22:04:21.368Z,17.70
2018-05-29T22:06:48.809Z,17.60
2018-05-29T22:09:16.228Z,18.20
2018-05-29T22:11:44.411Z,17.50
2018-05-29T22:14:12.612Z,18.20
2018-05-29T22:16:40.030Z,18.10
2018-05-29T22:19:07.453Z,19.10
2018-05-29T22:21:34.888Z,19.30
2018-05-29T22:24:02.397Z,19.80
2018-05-29T22:26:29.825Z,19.10
2018-05-29T22:28:57.253Z,19.80
2018-05-29T22:31:24.694Z,19.50
2018-05-29T22:33:52.122Z,20.10
2018-05-29T22:36:19.531Z,21.60
2018-05-29T22:38:46.969Z,21.00
2018-05-29T22:41:14.405Z,21.40
2018-05-29T22:43:41.819Z,21.70
2018-05-29T22:46:09.322Z,22.30
2018-05-29T22:48:36.777Z,23.70
2018-05-29T22:51:04.208Z,24.10
2018-05-29T22:53:31.631Z,24.50
2018-05-29T22:55:59.052Z,25.30
2018-05-29T22:58:26.484Z,25.60
2018-05-29T23:00:53.900Z,26.30
2018-05-29T23:03:22.094Z,26.70
2018-05-29T23:05:50.290Z,27.40
2018-05-29T23:08:17.713Z,27.20
2018-05-29T23:10:45.149Z,26.80
2018-05-29T23:13:12.572Z,26.80
2018-05-29T23:15:40.016Z,28.40
2018-05-29T23:18:07.453Z,29.10
2018-05-29T23:20:34.863Z,29.10
2018-05-29T23:23:03.060Z,30.10
2018-05-29T23:25:31.403Z,30.00
2018-05-29T23:27:58.815Z,30.20
2018-05-29T23:30:26.246Z,30.40
2018-05-29T23:32:53.652Z,31.00
2018-05-29T23:35:22.601Z,32.10
2018-05-29T23:37:50.024Z,32.10
2018-05-29T23:40:18.966Z,32.00
2018-05-29T23:42:47.142Z,34.00
2018-05-29T23:45:15.319Z,34.30
2018-05-29T23:47:43.516Z,34.70
2018-05-29T23:50:11.698Z,35.40
2018-05-29T23:52:39.879Z,38.50
2018-05-29T23:55:07.320Z,38.00
2018-05-29T23:57:34.750Z,38.50
